• Join FlightAware (Why Join?)
  • Login
  • US Flag 
11:09AM EDT


 

Airport Tracker/Info


-or-


 

Live Flight TrackerFlight Track Log ✈ SWA558 ✈ 28-Apr-2013 ✈ KMDW - KAUS

Flight Track Log - Related Links

Times and Time Zones

All times are in EDT time to prevent confusion due to time zone crossing. See the SWA558 flight status page for this flight to view local times or setup timezone preferences in your user account.

Time Position Orientation Groundspeed Altitude Reporting Facility
EDT Latitude Longitude Course Direction KTS MPH feet Rate Location/Type
03:54PM 41.8000 -87.7167 197° South 173 199 2,200  Level Chicago TRACON
03:56PM 41.6958 -87.7586 197° South 256 295 6,700 2,820 Climbing Chicago Center
03:57PM 41.6406 -87.8325 225° Southwest 277 319 10,400 2,520 Climbing Chicago Center
03:58PM 41.5839 -87.9144 227° Southwest 297 342 12,000 1,800 Climbing Chicago Center
03:59PM 41.5006 -87.9778 210° Southwest 355 409 14,200 2,640 Climbing Chicago Center
04:00PM 41.3969 -88.0406 204° Southwest 367 422 17,500 2,760 Climbing Chicago Center
04:01PM 41.2972 -88.0975 203° Southwest 389 448 20,000 2,700 Climbing Chicago Center
04:02PM 41.1708 -88.1722 204° Southwest 413 475 23,100 2,580 Climbing Chicago Center
04:03PM 41.0628 -88.2358 204° Southwest 424 488 25,400 1,980 Climbing Chicago Center
04:04PM 40.9533 -88.3000 204° Southwest 431 496 27,300 1,560 Climbing Chicago Center
04:05PM 40.8389 -88.3656 203° Southwest 446 513 28,700 1,380 Climbing Chicago Center
04:06PM 40.7186 -88.4353 204° Southwest 467 537 30,200 1,740 Climbing Chicago Center
04:07PM 40.5800 -88.5350 209° Southwest 476 548 32,300 2,040 Climbing Chicago Center
04:08PM 40.4836 -88.6478 222° Southwest 466 536 34,500 1,260 Climbing Chicago Center
04:09PM 40.3994 -88.7450 221° Southwest 456 525 35,000 960 Climbing Chicago Center
04:10PM 40.2850 -88.8769 221° Southwest 455 524 36,500 1,440 Climbing Chicago Center
04:11PM 40.1928 -88.9853 222° Southwest 446 513 38,000 720 Climbing Chicago Center
04:12PM 40.0983 -89.0906 220° Southwest 441 507 38,000  Level Kansas City Center
04:13PM 40.0067 -89.1964 222° Southwest 438 504 38,000  Level Kansas City Center
04:16PM 39.8164 -89.3972 219° Southwest 438 504 38,000  Level Kansas City Center
04:17PM 39.7222 -89.4983 220° Southwest 437 503 38,000  Level Kansas City Center
04:18PM 39.6192 -89.6083 219° Southwest 436 502 38,000  Level Kansas City Center
04:19PM 39.5253 -89.7069 219° Southwest 435 501 38,000  Level Kansas City Center
04:20PM 39.4311 -89.8061 219° Southwest 436 502 38,000  Level Kansas City Center
04:21PM 39.3381 -89.9031 219° Southwest 433 498 38,000  Level Kansas City Center
04:22PM 39.2447 -90.0022 219° Southwest 434 499 38,000  Level Kansas City Center
04:23PM 39.1322 -90.1194 219° Southwest 435 501 38,000  Level Kansas City Center
04:24PM 39.0394 -90.2175 219° Southwest 434 499 38,000  Level Kansas City Center
04:25PM 38.9458 -90.3144 219° Southwest 434 499 38,000  Level Kansas City Center
04:26PM 38.8456 -90.4181 219° Southwest 430 495 38,000  Level Kansas City Center
04:27PM 38.7444 -90.5111 216° Southwest 440 506 38,000  Level Kansas City Center
04:28PM 38.6522 -90.6119 221° Southwest 433 498 38,000  Level Kansas City Center
04:29PM 38.5522 -90.7139 219° Southwest 441 507 38,000  Level Kansas City Center
04:30PM 38.4564 -90.8100 218° Southwest 440 506 38,000  Level Kansas City Center
04:31PM 38.3603 -90.9072 218° Southwest 443 510 38,000  Level Kansas City Center
04:32PM 38.2450 -91.0233 218° Southwest 441 507 38,000  Level Kansas City Center
04:33PM 38.1486 -91.1181 218° Southwest 439 505 38,000  Level Kansas City Center
04:34PM 38.0561 -91.2125 219° Southwest 432 497 38,000  Level Kansas City Center
04:35PM 37.9600 -91.3097 219° Southwest 432 497 38,000  Level Kansas City Center
04:36PM 37.8617 -91.4058 218° Southwest 438 504 38,000  Level Kansas City Center
04:37PM 37.7642 -91.5017 218° Southwest 439 505 38,000  Level Kansas City Center
04:38PM 37.6492 -91.6158 218° Southwest 436 502 38,000  Level Kansas City Center
04:39PM 37.5550 -91.7106 219° Southwest 432 497 38,000  Level Kansas City Center
04:40PM 37.4578 -91.8047 218° Southwest 434 499 38,000  Level Kansas City Center
04:41PM 37.3614 -91.8994 218° Southwest 436 502 38,000  Level Kansas City Center
04:42PM 37.2658 -91.9922 218° Southwest 433 498 38,000  Level Kansas City Center
04:43PM 37.1694 -92.0864 218° Southwest 434 499 38,000  Level Kansas City Center
04:44PM 37.0744 -92.1789 218° Southwest 433 498 38,000  Level Kansas City Center
04:46PM 36.9772 -92.2719 217° Southwest 434 499 38,000  Level Kansas City Center
04:47PM 36.8583 -92.3864 218° Southwest 443 510 38,000  Level Kansas City Center
04:48PM 36.7611 -92.4819 218° Southwest 444 511 38,000  Level Kansas City Center
04:49PM 36.6633 -92.5750 217° Southwest 441 507 38,000  Level Kansas City Center
04:49PM 36.5900 -92.6414 216° Southwest 442 509 38,000  Level Memphis Center
04:50PM 36.4925 -92.7394 219° Southwest 442 509 38,000  Level Memphis Center
04:51PM 36.3947 -92.8269 216° Southwest 442 509 38,000  Level Memphis Center
04:52PM 36.2969 -92.9192 217° Southwest 442 509 38,000  Level Memphis Center
04:53PM 36.1994 -93.0061 216° Southwest 442 509 38,000  Level Memphis Center
04:54PM 36.1036 -93.0956 217° Southwest 442 509 38,000  Level Memphis Center
04:55PM 36.0097 -93.1872 218° Southwest 442 509 38,000  Level Memphis Center
04:56PM 35.9139 -93.2736 216° Southwest 442 509 38,000  Level Memphis Center
04:57PM 35.8181 -93.3650 218° Southwest 442 509 38,000  Level Memphis Center
04:58PM 35.7219 -93.4536 217° Southwest 442 509 38,000  Level Memphis Center
04:59PM 35.6258 -93.5419 217° Southwest 442 509 38,000  Level Memphis Center
05:00PM 35.5297 -93.6303 217° Southwest 442 509 38,000  Level Memphis Center
05:01PM 35.4336 -93.7181 217° Southwest 442 509 38,000  Level Memphis Center
05:02PM 35.3244 -93.8156 216° Southwest 447 514 38,000  Level Memphis Center
05:03PM 35.2283 -93.9031 217° Southwest 442 509 38,000  Level Memphis Center
05:04PM 35.1278 -93.9903 215° Southwest 442 509 38,000  Level Memphis Center
05:07PM 34.9144 -94.1928 218° Southwest 442 509 38,000  Level Fort Worth Center
05:08PM 34.8083 -94.2853 216° Southwest 442 509 38,000  Level Fort Worth Center
05:09PM 34.7125 -94.3772 218° Southwest 442 509 38,000  Level Fort Worth Center
05:10PM 34.6164 -94.4564 214° Southwest 436 502 38,000  Level Fort Worth Center
05:11PM 34.5222 -94.5403 216° Southwest 436 502 38,000  Level Fort Worth Center
05:12PM 34.4283 -94.6289 218° Southwest 431 496 38,000  Level Fort Worth Center
05:13PM 34.3361 -94.7072 215° Southwest 426 490 38,000  Level Fort Worth Center
05:14PM 34.2378 -94.7933 216° Southwest 431 496 38,000  Level Fort Worth Center
05:15PM 34.1436 -94.8789 217° Southwest 431 496 38,000  Level Fort Worth Center
05:16PM 34.0472 -94.9594 215° Southwest 426 490 38,000  Level Fort Worth Center
05:17PM 33.9547 -95.0422 217° Southwest 426 490 38,000  Level Fort Worth Center
05:18PM 33.8583 -95.1250 216° Southwest 426 490 38,000  Level Fort Worth Center
05:19PM 33.7639 -95.2072 216° Southwest 426 490 38,000  Level Fort Worth Center
05:20PM 33.6672 -95.2894 215° Southwest 426 490 38,000  Level Fort Worth Center
05:21PM 33.5703 -95.3717 215° Southwest 426 490 38,000  Level Fort Worth Center
05:22PM 33.4736 -95.4561 216° Southwest 426 490 38,000  Level Fort Worth Center
05:23PM 33.3808 -95.5378 216° Southwest 426 490 38,000  Level Fort Worth Center
05:24PM 33.2964 -95.6092 215° Southwest 419 482 38,000  Level Fort Worth Center
05:25PM 33.1953 -95.6956 216° Southwest 413 475 38,000  Level Fort Worth Center
05:26PM 33.0983 -95.7744 214° Southwest 413 475 38,000  Level Fort Worth Center
05:27PM 33.0053 -95.8553 216° Southwest 418 481 38,000  Level Fort Worth Center
05:28PM 32.9103 -95.9361 216° Southwest 418 481 38,000  Level Fort Worth Center
05:29PM 32.8172 -96.0167 216° Southwest 418 481 38,000  Level Fort Worth Center
05:30PM 32.7242 -96.0922 214° Southwest 424 488 38,000  Level Fort Worth Center
05:31PM 32.6269 -96.1728 215° Southwest 418 481 38,000  Level Fort Worth Center
05:32PM 32.5275 -96.2578 216° Southwest 423 487 38,000  Level Fort Worth Center
05:33PM 32.4425 -96.3303 216° Southwest 423 487 38,000  Level Fort Worth Center
05:34PM 32.3450 -96.4125 215° Southwest 423 487 38,000 -240 Level Fort Worth Center
05:35PM 32.2475 -96.4872 213° Southwest 423 487 37,600 -780 Descending Fort Worth Center
05:36PM 32.1458 -96.5594 211° Southwest 423 487 36,500 -1,020 Descending Fort Worth Center
05:37PM 32.0461 -96.6292 211° Southwest 423 487 35,600 -900 Descending Fort Worth Center
05:38PM 31.9483 -96.7008 212° Southwest 423 487 34,700 -960 Descending Fort Worth Center
05:39PM 31.8464 -96.7703 210° Southwest 423 487 33,700 -1,080 Descending Fort Worth Center
05:40PM 31.7506 -96.8392 211° Southwest 417 480 32,600 -1,260 Descending Fort Worth Center
05:41PM 31.6069 -96.9353 210° Southwest 395 455 30,600 -1,740 Descending Houston Center
05:42PM 31.4992 -97.0100 211° Southwest 382 440 28,100 -2,280 Descending Houston Center
05:43PM 31.4094 -97.0711 210° Southwest 373 429 25,900 -2,160 Descending Houston Center
05:44PM 31.3194 -97.1328 210° Southwest 372 428 23,700 -2,280 Descending Houston Center
05:46PM 31.2297 -97.1950 211° Southwest 372 428 21,200 -2,280 Descending Houston Center
05:47PM 31.1356 -97.2383 202° Southwest 364 419 19,100 -1,920 Descending Houston Center
05:48PM 31.0411 -97.2747 198° South 357 411 17,300 -1,800 Descending Houston Center
05:49PM 30.9439 -97.3119 198° South 350 403 15,500 -1,740 Descending Houston Center
05:50PM 30.8506 -97.3483 199° South 335 386 13,800 -1,200 Descending Houston Center
05:51PM 30.7667 -97.3803 198° South 318 366 13,000 -1,080 Descending Houston Center
05:52PM 30.6833 -97.4128 199° South 312 359 11,600 -1,560 Descending Houston Center
05:53PM 30.5997 -97.4706 211° Southwest 300 345 9,800 -1,680 Descending Houston Center
05:54PM 30.5294 -97.5272 215° Southwest 300 345 8,200 -1,500 Descending Houston Center
05:55PM 30.4667 -97.5889 220° Southwest 295 339 6,700 -1,380 Descending Houston Center
05:56PM 30.4069 -97.6425 218° Southwest 277 319 5,400 -960 Descending Houston Center
05:57PM 30.3492 -97.6622 196° South 227 261 4,800 -780 Descending Houston Center
05:58PM 30.3019 -97.6528 170° South 182 209 3,800 -1,500 Descending Houston Center
05:59PM 30.2625 -97.6586 187° South 154 177 1,700 -1,380 Descending Houston Center
06:00PM 30.2186 -97.6597 181° South 145 167 1,000 -720 Descending Houston Center
06:02PM 30.1945 -97.6699 221° Southwest  Level Estimated
06:09PM 30.1945 -97.6699 221° Southwest  Level Estimated